Pagrindinis puslapis
METAR-TAF:

METAR-TAF

Oro uostai :

Kišiniovas, Moldavija

platuma: 46-55-40N, ilguma: 028-55-51E, Aukštis: 122 m

Dabartinis oras

Ataskaita buvo paskelbta 30 minutes, ne 16:00 UTC
Vėjas 7 kt iš Šiaurės/Šiaurės Vakarų
Temperatūra 19°C
Drėgmė 52%
Slėgis 1019 hPa
Matomumas 10 km arba daugiau
nėra debesų žemiau 1500 m ir nėra kamuolinių lietaus debesų

METAR: LUKK 251600Z 33007KT CAVOK 19/09 Q1019 R26/D NOSIG

Laikas: 19:30 (16:30 UTC)

Prognozė

Ataskaita buvo paskelbta 5 valandos ir 10 minutes, ne 11:20 UTC
Prognozė galioja nuo 25 metu 12 UTC su 26 metu 12 UTC
Vėjas 12 kt iš Šiaurės Vakarų
Matomumas 10 km arba daugiau
nėra debesų žemiau 1500 m ir nėra kamuolinių lietaus debesų
Laikinai
nuo 25 metu 12 UTC su 25 metu 15 UTC
Vėjas 15 kt iš Šiaurės/Šiaurės Vakarų su gūsio iki 25 kt
Tapsmas
nuo 25 metu 16 UTC su 25 metu 18 UTC
Vėjas 8 kt iš Vakarų/Pietvakarių
Tapsmas
nuo 26 metu 08 UTC su 26 metu 10 UTC
Vėjas 10 kt iš Šiaurės Vakarų

TAF: LUKK 251120Z 2512/2612 31012KT CAVOK TEMPO 2512/2515 33015G25KT BECMG 2516/2518 25008KT BECMG 2608/2610 32010KT

Orai ataskaitas ir orų prognozės (METAR, TAF).

turimą stotys yra geltonos ir raudonos taškus žemėlapyje.

Perkelti pele per norėdami pamatyti stoties vardą.

Tada spustelėkite, norėdami matyti oro stebėjimo ir prognozės.

Norėdami pakeisti žemėlapį: spustelėkite ant žalios mygtukų su juodo kryžiaus žemyn,; žalią mygtuką su brūkšneliu, jei norite nutolinti; arba žalių rodyklių gretimoms žemėlapius.


METAR-TAF: